createdAt,value
2022-07-25T00:00:57.589Z,100.00
2022-07-25T00:03:29.518Z,100.00
2022-07-25T00:05:59.637Z,100.00
2022-07-25T00:08:28.142Z,100.00
2022-07-25T00:10:56.678Z,100.00
2022-07-25T00:13:25.178Z,100.00
2022-07-25T00:15:53.875Z,100.00
2022-07-25T00:18:22.734Z,100.00
2022-07-25T00:20:51.376Z,100.00
2022-07-25T00:23:21.363Z,100.00
2022-07-25T00:25:50.270Z,100.00
2022-07-25T00:28:18.840Z,100.00
2022-07-25T00:30:48.048Z,100.00
2022-07-25T00:33:16.696Z,100.00
2022-07-25T00:35:45.420Z,100.00
2022-07-25T00:38:15.441Z,100.00
2022-07-25T00:40:45.774Z,100.00
2022-07-25T00:43:22.804Z,100.00
2022-07-25T00:45:51.384Z,100.00
2022-07-25T00:48:19.867Z,100.00
2022-07-25T00:50:48.335Z,100.00
2022-07-25T00:53:17.210Z,100.00
2022-07-25T00:55:48.166Z,100.00
2022-07-25T00:58:16.807Z,100.00
2022-07-25T01:00:45.343Z,100.00
2022-07-25T01:03:14.034Z,100.00
2022-07-25T01:05:42.820Z,100.00
2022-07-25T01:08:11.984Z,100.00
2022-07-25T01:10:40.784Z,100.00
2022-07-25T01:13:10.734Z,100.00
2022-07-25T01:15:39.454Z,100.00
2022-07-25T01:18:08.010Z,100.00
2022-07-25T01:20:38.207Z,100.00
2022-07-25T01:23:06.795Z,100.00
2022-07-25T01:25:35.266Z,100.00
2022-07-25T01:28:05.196Z,100.00
2022-07-25T01:30:33.790Z,100.00
2022-07-25T01:33:06.708Z,100.00
2022-07-25T01:35:43.057Z,100.00
2022-07-25T01:38:11.986Z,100.00
2022-07-25T01:40:41.009Z,100.00
2022-07-25T01:43:09.815Z,100.00
2022-07-25T01:45:38.635Z,100.00
2022-07-25T01:48:07.540Z,100.00
2022-07-25T01:50:37.500Z,100.00
2022-07-25T01:53:06.329Z,100.00
2022-07-25T01:55:34.938Z,100.00
2022-07-25T01:58:03.444Z,100.00
2022-07-25T02:00:31.985Z,100.00
2022-07-25T02:03:17.781Z,100.00
2022-07-25T02:05:47.639Z,100.00
2022-07-25T02:08:16.150Z,100.00
2022-07-25T02:10:45.955Z,100.00
2022-07-25T02:13:14.400Z,100.00
2022-07-25T02:15:43.007Z,100.00
2022-07-25T02:18:11.803Z,100.00
2022-07-25T02:20:40.594Z,100.00
2022-07-25T02:23:10.987Z,100.00
2022-07-25T02:25:39.602Z,100.00
2022-07-25T02:28:08.080Z,100.00
2022-07-25T02:30:39.587Z,100.00
2022-07-25T02:33:08.082Z,100.00
2022-07-25T02:35:36.602Z,100.00
2022-07-25T02:38:05.221Z,100.00
2022-07-25T02:40:35.140Z,100.00
2022-07-25T02:43:03.725Z,100.00
2022-07-25T02:45:32.249Z,100.00
2022-07-25T02:48:02.787Z,100.00
2022-07-25T02:50:31.349Z,100.00
2022-07-25T02:53:00.117Z,100.00
2022-07-25T02:55:28.602Z,100.00
2022-07-25T02:57:58.516Z,100.00
2022-07-25T03:00:27.688Z,100.00
2022-07-25T03:02:56.415Z,100.00
2022-07-25T03:05:25.149Z,100.00
2022-07-25T03:07:54.696Z,100.00
2022-07-25T03:10:23.729Z,100.00
2022-07-25T03:12:52.472Z,100.00
2022-07-25T03:15:22.430Z,100.00
2022-07-25T03:17:50.923Z,100.00
2022-07-25T03:20:19.757Z,100.00
2022-07-25T03:22:49.110Z,100.00
2022-07-25T03:25:21.706Z,100.00
2022-07-25T03:27:51.236Z,100.00
2022-07-25T03:30:19.722Z,100.00
2022-07-25T03:32:50.002Z,100.00
2022-07-25T03:35:18.602Z,100.00
2022-07-25T03:37:47.109Z,100.00
2022-07-25T03:40:16.109Z,100.00
2022-07-25T03:42:45.275Z,100.00
2022-07-25T03:45:13.803Z,100.00
2022-07-25T03:47:42.279Z,100.00
2022-07-25T03:50:12.510Z,100.00
2022-07-25T03:52:41.000Z,100.00
2022-07-25T03:55:11.353Z,100.00
2022-07-25T03:57:40.234Z,100.00
2022-07-25T04:00:12.376Z,100.00
2022-07-25T04:05:50.723Z,100.00
2022-07-25T04:08:19.186Z,100.00
2022-07-25T04:10:47.646Z,100.00
2022-07-25T04:13:16.322Z,100.00
2022-07-25T04:15:44.843Z,100.00
2022-07-25T04:18:15.722Z,100.00
2022-07-25T04:20:51.034Z,100.00
2022-07-25T04:23:19.800Z,100.00
2022-07-25T04:25:48.273Z,100.00
2022-07-25T04:28:16.969Z,100.00
2022-07-25T04:30:45.566Z,100.00
2022-07-25T04:33:14.334Z,100.00
2022-07-25T04:35:42.869Z,100.00
2022-07-25T04:38:12.729Z,100.00
2022-07-25T04:40:41.627Z,100.00
2022-07-25T04:43:10.432Z,100.00
2022-07-25T04:45:39.099Z,100.00
2022-07-25T04:48:07.996Z,100.00
2022-07-25T04:50:36.996Z,100.00
2022-07-25T04:53:06.059Z,100.00
2022-07-25T04:55:36.647Z,100.00
2022-07-25T04:58:05.369Z,100.00
2022-07-25T05:00:34.543Z,100.00
2022-07-25T05:03:03.094Z,100.00
2022-07-25T05:05:31.565Z,100.00
2022-07-25T05:08:00.935Z,100.00
2022-07-25T05:10:30.839Z,100.00
2022-07-25T05:13:00.708Z,100.00
2022-07-25T05:15:29.230Z,100.00
2022-07-25T05:17:57.834Z,100.00
2022-07-25T05:20:26.526Z,100.00
2022-07-25T05:22:55.025Z,100.00
2022-07-25T05:25:24.027Z,100.00
2022-07-25T05:27:54.720Z,100.00
2022-07-25T05:30:24.657Z,100.00
2022-07-25T05:32:53.134Z,100.00
2022-07-25T05:35:21.757Z,100.00
2022-07-25T05:37:50.250Z,100.00
2022-07-25T05:40:19.517Z,100.00
2022-07-25T05:42:48.361Z,100.00
2022-07-25T05:45:16.876Z,100.00
2022-07-25T05:47:46.735Z,100.00
2022-07-25T05:50:16.260Z,100.00
2022-07-25T05:52:44.767Z,100.00
2022-07-25T05:55:13.762Z,100.00
2022-07-25T05:57:42.224Z,100.00
2022-07-25T06:00:12.008Z,100.00
2022-07-25T06:02:40.765Z,100.00
2022-07-25T06:05:11.289Z,100.00
2022-07-25T06:07:40.029Z,100.00
2022-07-25T06:10:09.518Z,100.00
2022-07-25T06:12:38.628Z,100.00
2022-07-25T06:15:17.696Z,100.00
2022-07-25T06:17:50.879Z,100.00
2022-07-25T06:20:21.011Z,100.00
2022-07-25T06:22:49.523Z,100.00
2022-07-25T06:25:17.993Z,100.00
2022-07-25T06:27:46.818Z,90.98
2022-07-25T06:30:20.227Z,83.31
2022-07-25T06:32:49.343Z,77.78
2022-07-25T06:35:18.025Z,78.66
2022-07-25T06:37:48.247Z,75.61
2022-07-25T06:40:17.128Z,75.98
2022-07-25T06:42:48.055Z,73.96
2022-07-25T06:45:17.915Z,69.61
2022-07-25T06:47:46.580Z,68.58
2022-07-25T06:50:18.688Z,64.13
2022-07-25T06:52:51.221Z,63.08
2022-07-25T06:55:19.911Z,62.60
2022-07-25T06:57:48.415Z,64.18
2022-07-25T07:00:17.276Z,63.51
2022-07-25T07:02:53.718Z,60.73
2022-07-25T07:05:22.642Z,59.33
2022-07-25T07:07:53.408Z,57.42
2022-07-25T07:10:23.301Z,59.34
2022-07-25T07:12:53.038Z,57.63
2022-07-25T07:15:22.859Z,59.52
2022-07-25T07:17:51.905Z,59.17
2022-07-25T07:20:20.342Z,61.30
2022-07-25T07:22:50.220Z,59.38
2022-07-25T07:25:21.498Z,60.38
2022-07-25T07:27:51.704Z,55.80
2022-07-25T07:30:24.778Z,52.04
2022-07-25T07:32:58.520Z,50.25
2022-07-25T07:35:27.303Z,51.28
2022-07-25T07:37:56.675Z,50.15
2022-07-25T07:40:27.059Z,52.28
2022-07-25T07:42:57.189Z,49.28
2022-07-25T07:45:26.483Z,50.90
2022-07-25T07:47:56.086Z,47.90
2022-07-25T07:50:27.623Z,47.88
2022-07-25T07:52:58.510Z,49.15
2022-07-25T07:55:48.963Z,49.60
2022-07-25T07:58:19.592Z,50.20
2022-07-25T08:00:51.727Z,47.78
2022-07-25T08:03:21.914Z,44.83
2022-07-25T08:05:51.987Z,46.86
2022-07-25T08:08:20.801Z,47.29
2022-07-25T08:10:52.693Z,46.46
2022-07-25T08:13:26.483Z,46.94
2022-07-25T08:15:59.536Z,47.40
2022-07-25T08:18:30.135Z,44.64
2022-07-25T08:20:58.783Z,42.27
2022-07-25T08:23:28.908Z,41.62
2022-07-25T08:25:59.002Z,42.85
2022-07-25T08:28:27.766Z,44.02
2022-07-25T08:30:56.430Z,43.46
2022-07-25T08:33:25.171Z,40.57
2022-07-25T08:35:55.791Z,39.88
2022-07-25T08:38:26.424Z,41.18
2022-07-25T08:40:56.467Z,41.92
2022-07-25T08:43:26.454Z,40.18
2022-07-25T08:45:56.139Z,40.33
2022-07-25T08:48:26.961Z,41.00
2022-07-25T08:50:57.355Z,40.24
2022-07-25T08:53:35.322Z,41.27
2022-07-25T08:56:12.239Z,40.00
2022-07-25T08:58:44.401Z,40.34
2022-07-25T09:01:13.908Z,40.37
2022-07-25T09:03:43.951Z,38.27
2022-07-25T09:06:18.122Z,36.92
2022-07-25T09:08:53.808Z,35.51
2022-07-25T09:11:30.321Z,35.00
2022-07-25T09:14:06.874Z,33.31
2022-07-25T09:16:40.119Z,32.76
2022-07-25T09:19:11.666Z,32.70
2022-07-25T09:21:41.241Z,32.72
2022-07-25T09:24:16.149Z,32.01
2022-07-25T09:26:46.899Z,31.77
2022-07-25T09:29:23.455Z,31.85
2022-07-25T09:31:52.676Z,31.61
2022-07-25T09:34:38.490Z,31.56
2022-07-25T09:37:08.501Z,31.58
2022-07-25T09:39:45.437Z,31.61
2022-07-25T09:42:20.026Z,31.23
2022-07-25T09:45:04.923Z,30.52
2022-07-25T09:47:35.311Z,30.13
2022-07-25T09:50:04.464Z,30.36
2022-07-25T09:52:33.936Z,30.01
2022-07-25T09:55:04.702Z,30.01
2022-07-25T09:57:33.346Z,28.93
2022-07-25T10:00:03.549Z,29.70
2022-07-25T10:02:49.897Z,29.20
2022-07-25T10:05:30.126Z,28.01
2022-07-25T10:07:59.589Z,28.52
2022-07-25T10:10:30.423Z,27.74
2022-07-25T10:13:11.206Z,27.64
2022-07-25T10:15:50.070Z,27.25
2022-07-25T10:18:20.202Z,26.54
2022-07-25T10:20:50.583Z,27.25
2022-07-25T10:23:24.328Z,27.08
2022-07-25T10:26:09.656Z,27.65
2022-07-25T10:28:40.543Z,31.31
2022-07-25T10:31:27.914Z,30.93
2022-07-25T10:33:58.591Z,31.22
2022-07-25T10:36:33.728Z,32.19
2022-07-25T10:39:03.025Z,31.90
2022-07-25T10:41:31.628Z,33.46
2022-07-25T10:44:04.221Z,33.95
2022-07-25T10:46:36.435Z,33.71
2022-07-25T10:49:07.050Z,33.10
2022-07-25T10:51:41.544Z,34.32
2022-07-25T10:54:15.577Z,35.33
2022-07-25T10:56:56.472Z,34.10
2022-07-25T10:59:30.889Z,33.84
2022-07-25T11:02:01.684Z,31.98
2022-07-25T11:04:31.544Z,31.06
2022-07-25T11:07:09.832Z,31.21
2022-07-25T11:09:39.182Z,29.96
2022-07-25T11:12:08.226Z,28.95
2022-07-25T11:14:39.944Z,30.54
2022-07-25T11:17:15.855Z,31.48
2022-07-25T11:19:47.188Z,30.42
2022-07-25T11:22:17.653Z,29.42
2022-07-25T11:24:47.839Z,29.07
2022-07-25T11:27:22.091Z,28.61
2022-07-25T11:29:50.422Z,29.04
2022-07-25T11:32:21.193Z,34.82
2022-07-25T11:34:51.151Z,32.70
2022-07-25T11:37:20.638Z,32.18
2022-07-25T11:39:49.699Z,31.44
2022-07-25T11:42:20.001Z,31.20
2022-07-25T11:44:50.095Z,31.49
2022-07-25T11:47:28.221Z,33.00
2022-07-25T11:49:59.204Z,35.36
2022-07-25T11:52:30.257Z,35.74
2022-07-25T11:55:01.815Z,38.33
2022-07-25T11:57:31.998Z,41.64
2022-07-25T12:00:02.687Z,43.00
2022-07-25T12:02:39.197Z,45.38
2022-07-25T12:05:10.444Z,45.69
2022-07-25T12:07:40.723Z,47.74
2022-07-25T12:10:12.369Z,48.56
2022-07-25T12:12:45.789Z,49.15
2022-07-25T12:15:15.201Z,50.03
2022-07-25T12:17:45.158Z,52.61
2022-07-25T12:20:17.316Z,53.22
2022-07-25T12:22:46.689Z,55.07
2022-07-25T12:25:15.208Z,55.18
2022-07-25T12:27:44.210Z,56.11
2022-07-25T12:30:13.698Z,60.57
2022-07-25T12:32:44.824Z,59.88
2022-07-25T12:35:15.623Z,58.74
2022-07-25T12:37:45.039Z,57.97
2022-07-25T12:40:15.537Z,57.30
2022-07-25T12:42:44.978Z,57.37
2022-07-25T12:45:14.915Z,57.20
2022-07-25T12:47:45.999Z,56.25
2022-07-25T12:50:15.793Z,56.87
2022-07-25T12:52:44.973Z,58.84
2022-07-25T12:55:15.763Z,59.61
2022-07-25T12:57:44.279Z,58.89
2022-07-25T13:00:15.095Z,58.37
2022-07-25T13:02:45.094Z,58.82
2022-07-25T13:05:13.638Z,56.93
2022-07-25T13:07:42.160Z,56.63
2022-07-25T13:10:11.138Z,56.25
2022-07-25T13:12:39.937Z,56.15
2022-07-25T13:15:09.401Z,57.12
2022-07-25T13:17:37.932Z,56.28
2022-07-25T13:20:09.433Z,55.42
2022-07-25T13:22:38.202Z,55.16
2022-07-25T13:25:07.547Z,56.42
2022-07-25T13:27:36.066Z,57.81
2022-07-25T13:30:04.840Z,57.51
2022-07-25T13:32:34.421Z,57.92
2022-07-25T13:35:03.154Z,57.83
2022-07-25T13:37:33.673Z,58.30
2022-07-25T13:40:02.213Z,58.61
2022-07-25T13:42:30.714Z,59.27
2022-07-25T13:44:59.451Z,61.00
2022-07-25T13:47:30.376Z,60.49
2022-07-25T13:49:59.142Z,60.90
2022-07-25T13:52:27.586Z,61.08
2022-07-25T13:54:57.408Z,60.81
2022-07-25T13:57:25.985Z,61.28
2022-07-25T13:59:54.768Z,61.66
2022-07-25T14:02:23.326Z,63.30
2022-07-25T14:04:51.854Z,63.84
2022-07-25T14:07:20.316Z,65.53
2022-07-25T14:09:48.815Z,66.18
2022-07-25T14:12:18.863Z,66.28
2022-07-25T14:14:47.709Z,66.04
2022-07-25T14:17:16.430Z,65.24
2022-07-25T14:19:44.966Z,64.35
2022-07-25T14:22:13.441Z,66.01
2022-07-25T14:24:41.951Z,65.58
2022-07-25T14:27:10.708Z,65.53
2022-07-25T14:29:40.801Z,66.24
2022-07-25T14:32:09.378Z,65.55
2022-07-25T14:34:40.553Z,66.35
2022-07-25T14:37:09.789Z,65.18
2022-07-25T14:39:38.647Z,63.65
2022-07-25T14:42:11.370Z,61.46
2022-07-25T14:44:41.714Z,66.60
2022-07-25T14:47:12.529Z,62.30
2022-07-25T14:49:41.879Z,63.92
2022-07-25T14:52:11.537Z,64.38
2022-07-25T14:54:40.755Z,68.98
2022-07-25T14:57:09.881Z,71.36
2022-07-25T14:59:38.487Z,71.53
2022-07-25T15:02:09.085Z,74.17
2022-07-25T15:04:37.598Z,77.77
2022-07-25T15:07:07.568Z,78.59
2022-07-25T15:09:36.054Z,81.28
2022-07-25T15:12:05.107Z,83.77
2022-07-25T15:14:33.936Z,85.34
2022-07-25T15:17:02.700Z,86.08
2022-07-25T15:19:32.841Z,85.87
2022-07-25T15:22:01.356Z,88.01
2022-07-25T15:24:29.876Z,88.59
2022-07-25T15:26:58.730Z,89.56
2022-07-25T15:29:28.356Z,89.60
2022-07-25T15:31:57.320Z,90.37
2022-07-25T15:34:25.870Z,90.65
2022-07-25T15:36:56.968Z,90.11
2022-07-25T15:39:25.787Z,88.93
2022-07-25T15:41:55.240Z,87.83
2022-07-25T15:44:25.646Z,89.26
2022-07-25T15:46:54.187Z,88.98
2022-07-25T15:49:22.966Z,88.49
2022-07-25T15:51:52.171Z,88.96
2022-07-25T15:54:25.073Z,89.17
2022-07-25T15:56:56.419Z,91.00
2022-07-25T15:59:25.124Z,92.41
2022-07-25T16:01:53.626Z,91.78
2022-07-25T16:04:22.229Z,91.59
2022-07-25T16:06:50.793Z,91.00
2022-07-25T16:09:21.111Z,89.80
2022-07-25T16:11:51.194Z,89.93
2022-07-25T16:14:19.729Z,92.58
2022-07-25T16:16:48.305Z,92.28
2022-07-25T16:19:16.933Z,93.84
2022-07-25T16:21:45.414Z,93.38
2022-07-25T16:24:13.978Z,93.78
2022-07-25T16:26:42.533Z,93.64
2022-07-25T16:29:12.890Z,93.33
2022-07-25T16:31:42.110Z,92.59
2022-07-25T16:34:11.328Z,92.85
2022-07-25T16:36:39.825Z,93.32
2022-07-25T16:39:08.971Z,93.94
2022-07-25T16:41:38.024Z,93.91
2022-07-25T16:44:06.848Z,93.51
2022-07-25T16:46:37.184Z,93.77
2022-07-25T16:49:06.058Z,94.76
2022-07-25T16:51:37.103Z,94.77
2022-07-25T16:54:06.393Z,93.70
2022-07-25T16:56:36.561Z,94.16
2022-07-25T16:59:05.480Z,92.26
2022-07-25T17:01:35.208Z,92.55
2022-07-25T17:04:05.994Z,93.10
2022-07-25T17:06:34.688Z,92.19
2022-07-25T17:09:03.155Z,90.26
2022-07-25T17:11:31.732Z,90.74
2022-07-25T17:14:00.758Z,90.52
2022-07-25T17:16:29.324Z,88.94
2022-07-25T17:18:57.956Z,90.25
2022-07-25T17:21:27.943Z,89.71
2022-07-25T17:23:56.671Z,91.02
2022-07-25T17:26:25.265Z,89.76
2022-07-25T17:28:54.203Z,90.79
2022-07-25T17:31:24.397Z,89.02
2022-07-25T17:33:52.942Z,89.11
2022-07-25T17:36:21.542Z,90.05
2022-07-25T17:38:51.603Z,89.24
2022-07-25T17:41:20.139Z,89.87
2022-07-25T17:43:49.318Z,90.08
2022-07-25T17:46:17.899Z,90.09
2022-07-25T17:48:46.775Z,89.02
2022-07-25T17:51:15.489Z,89.03
2022-07-25T17:53:44.009Z,88.59
2022-07-25T17:56:13.949Z,88.79
2022-07-25T17:58:42.631Z,91.52
2022-07-25T18:01:11.374Z,89.35
2022-07-25T18:03:39.985Z,90.36
2022-07-25T18:06:09.169Z,89.21
2022-07-25T18:08:38.249Z,89.95
2022-07-25T18:11:06.982Z,89.65
2022-07-25T18:13:36.931Z,90.05
2022-07-25T18:16:05.784Z,90.98
2022-07-25T18:18:34.290Z,90.62
2022-07-25T18:21:03.214Z,91.13
2022-07-25T18:23:31.686Z,92.10
2022-07-25T18:26:00.235Z,93.51
2022-07-25T18:28:28.909Z,92.90
2022-07-25T18:30:58.865Z,93.04
2022-07-25T18:33:27.403Z,95.42
2022-07-25T18:35:56.580Z,96.68
2022-07-25T18:38:25.039Z,100.00
2022-07-25T18:41:12.297Z,100.00
2022-07-25T18:43:42.132Z,100.00
2022-07-25T18:46:15.442Z,100.00
2022-07-25T18:48:45.815Z,99.06
2022-07-25T18:51:14.370Z,97.87
2022-07-25T18:53:47.319Z,99.08
2022-07-25T18:56:17.322Z,100.00
2022-07-25T18:58:46.206Z,100.00
2022-07-25T19:01:16.194Z,100.00
2022-07-25T19:03:44.863Z,100.00
2022-07-25T19:06:13.455Z,100.00
2022-07-25T19:08:43.795Z,100.00
2022-07-25T19:11:12.374Z,100.00
2022-07-25T19:13:50.940Z,100.00
2022-07-25T19:16:21.412Z,100.00
2022-07-25T19:18:49.984Z,100.00
2022-07-25T19:21:18.451Z,100.00
2022-07-25T19:23:50.761Z,100.00
2022-07-25T19:26:20.379Z,100.00
2022-07-25T19:28:49.076Z,100.00
2022-07-25T19:31:18.174Z,100.00
2022-07-25T19:33:48.155Z,100.00
2022-07-25T19:36:16.667Z,100.00
2022-07-25T19:38:45.148Z,100.00
2022-07-25T19:41:14.698Z,100.00
2022-07-25T19:43:43.746Z,100.00
2022-07-25T19:46:12.373Z,100.00
2022-07-25T19:48:41.344Z,100.00
2022-07-25T19:51:11.450Z,100.00
2022-07-25T19:53:40.137Z,100.00
2022-07-25T19:56:09.331Z,100.00
2022-07-25T19:58:39.057Z,100.00
2022-07-25T20:01:09.556Z,100.00
2022-07-25T20:03:38.246Z,100.00
2022-07-25T20:06:08.448Z,100.00
2022-07-25T20:08:40.571Z,100.00
2022-07-25T20:11:09.492Z,100.00
2022-07-25T20:13:37.972Z,100.00
2022-07-25T20:16:07.217Z,100.00
2022-07-25T20:18:35.874Z,100.00
2022-07-25T20:21:04.572Z,100.00
2022-07-25T20:23:33.455Z,100.00
2022-07-25T20:26:04.379Z,100.00
2022-07-25T20:28:33.453Z,100.00
2022-07-25T20:31:02.560Z,100.00
2022-07-25T20:33:31.387Z,100.00
2022-07-25T20:36:00.663Z,100.00
2022-07-25T20:38:31.199Z,100.00
2022-07-25T20:41:00.361Z,100.00
2022-07-25T20:43:30.316Z,100.00
2022-07-25T20:45:59.252Z,100.00
2022-07-25T20:48:27.879Z,100.00
2022-07-25T20:50:56.832Z,100.00
2022-07-25T20:53:25.399Z,100.00
2022-07-25T20:55:54.281Z,100.00
2022-07-25T20:58:22.823Z,100.00
2022-07-25T21:00:52.756Z,100.00
2022-07-25T21:03:21.485Z,100.00
2022-07-25T21:05:50.377Z,100.00
2022-07-25T21:08:18.951Z,100.00
2022-07-25T21:10:47.632Z,100.00
2022-07-25T21:13:18.486Z,100.00
2022-07-25T21:15:47.258Z,100.00
2022-07-25T21:18:17.239Z,100.00
2022-07-25T21:20:47.409Z,100.00
2022-07-25T21:23:16.081Z,100.00
2022-07-25T21:25:44.821Z,100.00
2022-07-25T21:28:13.951Z,100.00
2022-07-25T21:30:43.317Z,100.00
2022-07-25T21:33:14.794Z,100.00
2022-07-25T21:35:52.027Z,100.00
2022-07-25T21:38:26.007Z,100.00
2022-07-25T21:40:57.245Z,100.00
2022-07-25T21:43:26.222Z,100.00
2022-07-25T21:45:55.238Z,100.00
2022-07-25T21:48:44.171Z,100.00
2022-07-25T21:51:22.915Z,100.00
2022-07-25T21:53:52.345Z,100.00
2022-07-25T21:56:21.575Z,100.00
2022-07-25T21:58:50.213Z,100.00
2022-07-25T22:01:21.141Z,100.00
2022-07-25T22:03:49.858Z,100.00
2022-07-25T22:06:20.274Z,100.00
2022-07-25T22:08:48.835Z,100.00
2022-07-25T22:11:38.518Z,100.00
2022-07-25T22:14:06.791Z,100.00
2022-07-25T22:16:35.558Z,100.00
2022-07-25T22:19:04.773Z,100.00
2022-07-25T22:21:35.293Z,100.00
2022-07-25T22:24:03.855Z,100.00
2022-07-25T22:26:32.395Z,100.00
2022-07-25T22:29:01.194Z,100.00
2022-07-25T22:31:30.116Z,100.00
2022-07-25T22:33:58.726Z,100.00
2022-07-25T22:36:27.320Z,100.00
2022-07-25T22:38:57.306Z,100.00
2022-07-25T22:41:25.879Z,100.00
2022-07-25T22:43:58.394Z,100.00
2022-07-25T22:46:28.693Z,100.00
2022-07-25T22:48:57.965Z,100.00
2022-07-25T22:51:27.530Z,100.00
2022-07-25T22:53:58.003Z,100.00
2022-07-25T22:56:27.148Z,100.00
2022-07-25T22:58:55.728Z,100.00
2022-07-25T23:01:24.865Z,100.00
2022-07-25T23:03:53.714Z,100.00
2022-07-25T23:06:22.927Z,100.00
2022-07-25T23:08:51.761Z,100.00
2022-07-25T23:11:21.623Z,100.00
2022-07-25T23:13:50.219Z,100.00
2022-07-25T23:16:19.389Z,100.00
2022-07-25T23:18:47.891Z,100.00
2022-07-25T23:21:16.368Z,100.00
2022-07-25T23:23:44.848Z,100.00
2022-07-25T23:26:13.419Z,100.00
2022-07-25T23:28:43.276Z,100.00
2022-07-25T23:31:12.035Z,100.00
2022-07-25T23:33:40.562Z,100.00
2022-07-25T23:36:09.469Z,100.00
2022-07-25T23:38:38.076Z,100.00
2022-07-25T23:41:06.834Z,100.00
2022-07-25T23:43:56.401Z,100.00
2022-07-25T23:46:29.282Z,100.00
2022-07-25T23:49:00.334Z,100.00
2022-07-25T23:51:29.410Z,100.00
2022-07-25T23:53:58.124Z,100.00
2022-07-25T23:56:26.781Z,100.00
2022-07-25T23:58:55.303Z,100.00
